Airfield :
LOGIN :

Register | Disclaimer

   EN    FR    IT 

 










Legend :    VFR   Marginal VFR   IFR   Intensive IFR   Very Intensive IFR
Visi :
Ceiling :
>= 8 km
>= 3000ft
5 to 8 km
1000 to 3000 ft
1500m to 5 km
500 to 1000 ft
800 to 1500m
200 to 500 ft
< 800m
< 200 ft
Symbols :   Thunderstorms  Fog  Heavy snow  Heavy precipitations  Wind > 20 kt
SIGMETs :     Misc.  Thunderstorms  Icing  Turbulence  Mountain Waves  Volcanic Ashes






- Airport Elevation : 357 ft
- IATA code : TUF


LFOT - Tours

CURRENT METAR :
  • 240000Z AUTO 21008KT 9999 BKN035 12/10 Q1018 NOSIG

EXPIRED METARs :
  • 232330Z AUTO 21007KT 9999 BKN034 12/10 Q1018 NOSIG
  • 232300Z AUTO 21007KT 9999 SCT031 12/10 Q1018 TEMPO BKN005
  • 232230Z AUTO 23007KT 9999 FEW024 12/10 Q1018 TEMPO BKN005
  • 232200Z AUTO 24007KT 9999 BKN028 12/10 Q1018 NOSIG
  • 232130Z AUTO 22005KT 9999 SCT028 SCT033 12/10 Q1018 NOSIG

TAF TAF LFOT
Valid from the 24 at 00:00 until the 25 at 00:00 UTC


232300Z 2400/2424 21010KT 9999 BKN025
TEMPO 2404/2408 2500 -RA BKN004 BKN040
BECMG 2409/2411 20016G26KT
TEMPO 2409/2413 BKN011
TEMPO 2420/2424 19018G30KT



MET'MAP, your aeronautical weather chart ! - Copyright ORBIFLY December 2007 - Disclaimer

ORBIFLY MET'MAP TEAM :

Programming & Development : Alexandra Zaïnal
Concept & original design : Baudouin d'Aumeries
Assistance for programming : Marc-Olivier Méhu
Technical & hardware support : Manuel Goepfert

Contact : metmap@orbifly.com




SOURCES & CREDITS :

   NOAA